Back to Top

Language: 

My Weather Underground Personal Weather Station Historical Data with Graphs...

Delerius Weather Station Historical Data
Daily Summary for May 7, 2017 Units:  Metric    English   Both
« Previous Day
Next Day »
Daily Weekly Monthly Yearly Custom
  High: Low: Average:
Temperature: 14.3 °C 6 °C 9.3 °C
Dew Point: 8.7 °C 3.7 °C 6.1 °C
Humidity: 92 % 67 % 81 %
Wind Speed: 16.1 km/h 1.6 km/h 8.9 km/h
Wind Gust: 33.8 km/h - -
Wind:- - South
Pressure: 1026.3 hPa 1018.5 hPa -
Precipitation: 0 mm    
Historical Graphs
 
 
Tabular Data for May 7, 2017
Time Temperature Dew Point Pressure Wind Wind Speed Wind Gust Humidity Rainfall Rate (Hourly) solar Conditions
00:02 9.4 °C 7 °C 1018.5 hPa NNW 1.6 km/h 9.7 km/h 85 % 0 mm 0 W/m2
00:07 9.4 °C 6.8 °C 1018.5 hPa North 4.8 km/h 19.3 km/h 84 % 0 mm 0 W/m2
00:12 9.2 °C 6.6 °C 1018.5 hPa North 9.7 km/h 19.3 km/h 84 % 0 mm 0 W/m2
00:17 9 °C 6.4 °C 1018.8 hPa North 11.3 km/h 20.9 km/h 84 % 0 mm 0 W/m2
00:22 8.8 °C 6.4 °C 1018.8 hPa North 11.3 km/h 22.5 km/h 85 % 0 mm 0 W/m2
00:27 8.7 °C 6.5 °C 1018.8 hPa North 11.3 km/h 24.1 km/h 86 % 0 mm 0 W/m2
00:32 8.5 °C 6.3 °C 1018.8 hPa North 12.9 km/h 24.1 km/h 86 % 0 mm 0 W/m2
00:37 8.3 °C 6.3 °C 1018.8 hPa North 9.7 km/h 22.5 km/h 87 % 0 mm 0 W/m2
00:42 8.3 °C 6.4 °C 1018.8 hPa North 8 km/h 16.1 km/h 88 % 0 mm 0 W/m2
00:47 8.2 °C 6.3 °C 1018.8 hPa North 8 km/h 17.7 km/h 88 % 0 mm 0 W/m2
00:52 8.1 °C 6.2 °C 1018.8 hPa North 8 km/h 17.7 km/h 88 % 0 mm 0 W/m2
00:57 7.9 °C 6.1 °C 1018.8 hPa North 8 km/h 19.3 km/h 88 % 0 mm 0 W/m2
01:02 7.9 °C 6.2 °C 1018.8 hPa North 8 km/h 19.3 km/h 89 % 0 mm 0 W/m2
01:07 7.8 °C 6.1 °C 1018.8 hPa North 8 km/h 14.5 km/h 89 % 0 mm 0 W/m2
01:13 7.7 °C 6 °C 1018.8 hPa North 8 km/h 16.1 km/h 89 % 0 mm 0 W/m2
01:18 7.6 °C 5.9 °C 1018.8 hPa North 6.4 km/h 16.1 km/h 89 % 0 mm 0 W/m2
01:23 7.5 °C 5.9 °C 1018.8 hPa North 6.4 km/h 16.1 km/h 90 % 0 mm 0 W/m2
01:28 7.4 °C 5.9 °C 1018.8 hPa NNW 8 km/h 17.7 km/h 90 % 0 mm 0 W/m2
01:33 7.3 °C 5.8 °C 1018.8 hPa North 9.7 km/h 17.7 km/h 90 % 0 mm 0 W/m2
01:38 7.2 °C 5.7 °C 1019.2 hPa North 8 km/h 16.1 km/h 90 % 0 mm 0 W/m2
01:43 7.1 °C 5.6 °C 1019.2 hPa North 9.7 km/h 16.1 km/h 90 % 0 mm 0 W/m2
01:48 7 °C 5.4 °C 1019.2 hPa NNW 8 km/h 17.7 km/h 90 % 0 mm 0 W/m2
01:53 6.9 °C 5.4 °C 1018.8 hPa NNW 8 km/h 17.7 km/h 90 % 0 mm 0 W/m2
01:58 6.8 °C 5.3 °C 1019.2 hPa NNW 6.4 km/h 14.5 km/h 90 % 0 mm 0 W/m2
02:03 6.8 °C 5.3 °C 1019.2 hPa NNW 4.8 km/h 14.5 km/h 90 % 0 mm 0 W/m2
02:08 6.7 °C 5.2 °C 1019.2 hPa NW 4.8 km/h 14.5 km/h 90 % 0 mm 0 W/m2
02:13 6.6 °C 5.1 °C 1019.2 hPa NW 1.6 km/h 9.7 km/h 90 % 0 mm 0 W/m2
02:18 6.5 °C 5 °C 1019.2 hPa NW 1.6 km/h 9.7 km/h 90 % 0 mm 0 W/m2
02:23 6.4 °C 5.1 °C 1019.2 hPa NW 3.2 km/h 9.7 km/h 91 % 0 mm 0 W/m2
02:28 6.3 °C 4.9 °C 1019.2 hPa NW 1.6 km/h 9.7 km/h 91 % 0 mm 0 W/m2
02:33 6.2 °C 4.8 °C 1019.2 hPa NW 3.2 km/h 11.3 km/h 91 % 0 mm 0 W/m2
02:38 6.2 °C 4.8 °C 1019.2 hPa NW 4.8 km/h 11.3 km/h 91 % 0 mm 0 W/m2
02:43 6.2 °C 5 °C 1019.2 hPa NW 4.8 km/h 11.3 km/h 92 % 0 mm 0 W/m2
02:48 6.2 °C 5 °C 1019.2 hPa NW 4.8 km/h 12.9 km/h 92 % 0 mm 0 W/m2
02:53 6.2 °C 5 °C 1019.2 hPa NW 4.8 km/h 12.9 km/h 92 % 0 mm 0 W/m2
02:58 6.2 °C 5 °C 1019.5 hPa NW 4.8 km/h 12.9 km/h 92 % 0 mm 0 W/m2
03:03 6.2 °C 5 °C 1019.5 hPa NNW 3.2 km/h 11.3 km/h 92 % 0 mm 0 W/m2
03:08 6.3 °C 5.1 °C 1019.5 hPa NNW 1.6 km/h 8 km/h 92 % 0 mm 0 W/m2
03:09 6.2 °C 5 °C 1019.5 hPa NNW 1.6 km/h 8 km/h 92 % 0 mm 0 W/m2
03:14 6.3 °C 5.1 °C 1019.5 hPa NW 3.2 km/h 11.3 km/h 92 % 0 mm 0 W/m2
03:19 6.3 °C 5.1 °C 1019.5 hPa NW 4.8 km/h 11.3 km/h 92 % 0 mm 0 W/m2
03:24 6.3 °C 5.1 °C 1019.5 hPa NW 3.2 km/h 11.3 km/h 92 % 0 mm 0 W/m2
03:29 6.3 °C 5.1 °C 1019.5 hPa NW 3.2 km/h 11.3 km/h 92 % 0 mm 0 W/m2
03:34 6.3 °C 5.1 °C 1019.5 hPa NNW 3.2 km/h 12.9 km/h 92 % 0 mm 0 W/m2
03:39 6.3 °C 5.1 °C 1019.5 hPa NNW 4.8 km/h 12.9 km/h 92 % 0 mm 0 W/m2
03:44 6.3 °C 5.1 °C 1019.5 hPa NNW 6.4 km/h 14.5 km/h 92 % 0 mm 0 W/m2
03:49 6.3 °C 5.1 °C 1019.5 hPa NNW 4.8 km/h 14.5 km/h 92 % 0 mm 0 W/m2
03:54 6.2 °C 5 °C 1019.5 hPa NNW 4.8 km/h 12.9 km/h 92 % 0 mm 0 W/m2
03:59 6.2 °C 4.8 °C 1019.5 hPa NNW 4.8 km/h 14.5 km/h 91 % 0 mm 0 W/m2
04:04 6.2 °C 4.8 °C 1019.5 hPa NNW 6.4 km/h 14.5 km/h 91 % 0 mm 0 W/m2
04:09 6.2 °C 4.8 °C 1019.5 hPa NNW 4.8 km/h 11.3 km/h 91 % 0 mm 0 W/m2
04:14 6.1 °C 4.7 °C 1019.5 hPa NW 4.8 km/h 9.7 km/h 91 % 0 mm 0 W/m2
04:19 6.1 °C 4.7 °C 1019.5 hPa NW 4.8 km/h 9.7 km/h 91 % 0 mm 0 W/m2
04:24 6.1 °C 4.7 °C 1019.9 hPa NW 4.8 km/h 11.3 km/h 91 % 0 mm 0 W/m2
04:29 6 °C 4.7 °C 1019.9 hPa NW 6.4 km/h 14.5 km/h 91 % 0 mm 0 W/m2
04:34 6 °C 4.7 °C 1019.9 hPa NW 6.4 km/h 14.5 km/h 91 % 0 mm 0 W/m2
04:39 6 °C 4.7 °C 1019.9 hPa NW 6.4 km/h 17.7 km/h 91 % 0 mm 0 W/m2
04:44 6 °C 4.7 °C 1019.9 hPa NW 6.4 km/h 17.7 km/h 91 % 0 mm 0 W/m2
04:49 6 °C 4.7 °C 1019.9 hPa NW 4.8 km/h 12.9 km/h 91 % 0 mm 0 W/m2
04:54 6 °C 4.7 °C 1019.9 hPa NW 4.8 km/h 12.9 km/h 91 % 0 mm 0 W/m2
04:59 6 °C 4.7 °C 1019.9 hPa NW 4.8 km/h 16.1 km/h 91 % 0 mm 0 W/m2
05:04 6 °C 4.7 °C 1019.9 hPa NW 6.4 km/h 16.1 km/h 91 % 0 mm 0 W/m2
05:09 6.1 °C 4.7 °C 1019.9 hPa NW 4.8 km/h 14.5 km/h 91 % 0 mm 0 W/m2
05:14 6.1 °C 4.7 °C 1019.9 hPa NW 4.8 km/h 12.9 km/h 91 % 0 mm 0 W/m2
05:19 6.1 °C 4.7 °C 1019.9 hPa NW 4.8 km/h 12.9 km/h 91 % 0 mm 0 W/m2
05:24 6.1 °C 4.7 °C 1019.9 hPa NW 6.4 km/h 14.5 km/h 91 % 0 mm 0 W/m2
05:29 6.2 °C 4.7 °C 1019.9 hPa NW 8 km/h 16.1 km/h 90 % 0 mm 5 W/m2
05:34 6.2 °C 4.7 °C 1020.2 hPa NW 8 km/h 16.1 km/h 90 % 0 mm 5 W/m2
05:39 6.2 °C 4.7 °C 1020.2 hPa NW 6.4 km/h 16.1 km/h 90 % 0 mm 7 W/m2
05:44 6.2 °C 4.7 °C 1020.2 hPa NW 6.4 km/h 16.1 km/h 90 % 0 mm 9 W/m2
05:49 6.2 °C 4.7 °C 1020.5 hPa NNW 6.4 km/h 14.5 km/h 90 % 0 mm 9 W/m2
05:54 6.3 °C 4.8 °C 1020.5 hPa NNW 6.4 km/h 16.1 km/h 90 % 0 mm 9 W/m2
05:59 6.3 °C 4.8 °C 1020.5 hPa NW 8 km/h 20.9 km/h 90 % 0 mm 9 W/m2
06:04 6.3 °C 4.8 °C 1020.5 hPa NW 8 km/h 20.9 km/h 90 % 0 mm 12 W/m2
06:09 6.3 °C 4.6 °C 1020.5 hPa NNW 6.4 km/h 11.3 km/h 89 % 0 mm 12 W/m2
06:14 6.3 °C 4.8 °C 1020.5 hPa NNW 4.8 km/h 12.9 km/h 90 % 0 mm 14 W/m2
06:19 6.4 °C 4.9 °C 1020.5 hPa NW 6.4 km/h 14.5 km/h 90 % 0 mm 16 W/m2
06:24 6.4 °C 4.7 °C 1020.5 hPa NW 6.4 km/h 14.5 km/h 89 % 0 mm 14 W/m2
06:30 6.4 °C 4.7 °C 1020.9 hPa NW 6.4 km/h 14.5 km/h 89 % 0 mm 14 W/m2
06:34 6.4 °C 4.7 °C 1020.9 hPa NW 6.4 km/h 14.5 km/h 89 % 0 mm 14 W/m2
06:39 6.4 °C 4.7 °C 1020.9 hPa NW 6.4 km/h 12.9 km/h 89 % 0 mm 32 W/m2
06:44 6.5 °C 4.8 °C 1020.9 hPa NW 6.4 km/h 14.5 km/h 89 % 0 mm 42 W/m2
06:50 6.6 °C 4.9 °C 1021.2 hPa NW 4.8 km/h 14.5 km/h 89 % 0 mm 44 W/m2
06:55 6.6 °C 4.9 °C 1021.2 hPa NW 4.8 km/h 12.9 km/h 89 % 0 mm 62 W/m2
07:00 6.7 °C 5 °C 1021.2 hPa NW 3.2 km/h 12.9 km/h 89 % 0 mm 69 W/m2
07:05 6.7 °C 5 °C 1021.2 hPa NW 3.2 km/h 12.9 km/h 89 % 0 mm 72 W/m2
07:10 6.8 °C 5.1 °C 1021.2 hPa NW 4.8 km/h 12.9 km/h 89 % 0 mm 76 W/m2
07:15 6.9 °C 5.2 °C 1021.2 hPa NW 4.8 km/h 11.3 km/h 89 % 0 mm 72 W/m2
07:20 7 °C 5.2 °C 1021.2 hPa NW 4.8 km/h 12.9 km/h 88 % 0 mm 60 W/m2
07:25 7 °C 5.2 °C 1021.2 hPa NW 6.4 km/h 14.5 km/h 88 % 0 mm 72 W/m2
07:30 7.1 °C 5.1 °C 1021.2 hPa NW 8 km/h 19.3 km/h 87 % 0 mm 100 W/m2
07:35 7.1 °C 5.1 °C 1021.6 hPa WNW 9.7 km/h 19.3 km/h 87 % 0 mm 74 W/m2
07:40 7.1 °C 5.1 °C 1021.6 hPa WNW 8 km/h 14.5 km/h 87 % 0 mm 74 W/m2
07:45 7.2 °C 5.2 °C 1021.6 hPa WNW 6.4 km/h 12.9 km/h 87 % 0 mm 77 W/m2
07:50 7.3 °C 5.3 °C 1021.6 hPa NW 6.4 km/h 14.5 km/h 87 % 0 mm 97 W/m2
07:55 7.3 °C 5.1 °C 1021.6 hPa NW 6.4 km/h 14.5 km/h 86 % 0 mm 100 W/m2
08:00 7.4 °C 5.2 °C 1021.6 hPa NW 6.4 km/h 12.9 km/h 86 % 0 mm 109 W/m2
08:05 7.6 °C 5.4 °C 1021.6 hPa WNW 8 km/h 14.5 km/h 86 % 0 mm 88 W/m2
08:10 7.6 °C 5.4 °C 1021.6 hPa WNW 9.7 km/h 16.1 km/h 86 % 0 mm 70 W/m2
08:15 7.7 °C 5.5 °C 1021.6 hPa NW 8 km/h 16.1 km/h 86 % 0 mm 160 W/m2
08:20 7.8 °C 5.6 °C 1021.6 hPa NW 6.4 km/h 12.9 km/h 86 % 0 mm 171 W/m2
08:25 8 °C 5.8 °C 1021.6 hPa WNW 6.4 km/h 14.5 km/h 86 % 0 mm 165 W/m2
08:30 8.2 °C 5.8 °C 1021.6 hPa NW 8 km/h 14.5 km/h 85 % 0 mm 176 W/m2
08:31 8.2 °C 5.8 °C 1021.6 hPa NW 8 km/h 14.5 km/h 85 % 0 mm 195 W/m2
08:36 8.4 °C 6 °C 1021.6 hPa NW 9.7 km/h 14.5 km/h 85 % 0 mm 207 W/m2
08:41 8.6 °C 6.2 °C 1021.6 hPa NW 6.4 km/h 14.5 km/h 85 % 0 mm 218 W/m2
08:46 8.8 °C 6.2 °C 1021.6 hPa NW 6.4 km/h 14.5 km/h 84 % 0 mm 251 W/m2
08:51 9.1 °C 6.6 °C 1021.6 hPa NW 8 km/h 14.5 km/h 84 % 0 mm 251 W/m2
08:56 9.3 °C 6.6 °C 1021.6 hPa NW 8 km/h 14.5 km/h 83 % 0 mm 239 W/m2
09:01 9.4 °C 6.5 °C 1021.6 hPa NNW 8 km/h 16.1 km/h 82 % 0 mm 243 W/m2
09:06 9.6 °C 6.7 °C 1021.6 hPa NNW 8 km/h 16.1 km/h 82 % 0 mm 204 W/m2
09:11 9.7 °C 6.6 °C 1021.6 hPa NNW 8 km/h 14.5 km/h 81 % 0 mm 185 W/m2
09:16 9.8 °C 6.7 °C 1021.6 hPa NNW 8 km/h 14.5 km/h 81 % 0 mm 176 W/m2
09:21 9.9 °C 6.8 °C 1021.9 hPa NNW 6.4 km/h 16.1 km/h 81 % 0 mm 192 W/m2
09:26 10.1 °C 6.8 °C 1021.9 hPa NNW 9.7 km/h 19.3 km/h 80 % 0 mm 163 W/m2
09:32 10.1 °C 6.8 °C 1021.9 hPa NNW 11.3 km/h 19.3 km/h 80 % 0 mm 158 W/m2
09:37 10.1 °C 6.8 °C 1021.9 hPa North 9.7 km/h 17.7 km/h 80 % 0 mm 174 W/m2
09:42 10.1 °C 6.8 °C 1021.9 hPa North 9.7 km/h 17.7 km/h 80 % 0 mm 209 W/m2
09:47 10.2 °C 6.9 °C 1021.9 hPa NNW 9.7 km/h 17.7 km/h 80 % 0 mm 218 W/m2
09:52 10.2 °C 6.9 °C 1021.9 hPa NNW 9.7 km/h 17.7 km/h 80 % 0 mm 197 W/m2
09:57 10.3 °C 6.8 °C 1021.9 hPa NNW 9.7 km/h 20.9 km/h 79 % 0 mm 244 W/m2
10:02 10.4 °C 6.9 °C 1022.2 hPa NNW 8 km/h 20.9 km/h 79 % 0 mm 241 W/m2
10:07 10.5 °C 6.8 °C 1022.2 hPa NNW 9.7 km/h 22.5 km/h 78 % 0 mm 278 W/m2
10:12 10.6 °C 6.9 °C 1022.2 hPa NNW 12.9 km/h 22.5 km/h 78 % 0 mm 262 W/m2
10:17 10.6 °C 6.9 °C 1022.2 hPa North 12.9 km/h 24.1 km/h 78 % 0 mm 316 W/m2
10:22 10.6 °C 6.7 °C 1022.2 hPa North 11.3 km/h 24.1 km/h 77 % 0 mm 274 W/m2
10:27 10.8 °C 7.1 °C 1022.2 hPa NNW 11.3 km/h 22.5 km/h 78 % 0 mm 237 W/m2
10:32 10.9 °C 7 °C 1022.2 hPa NNW 9.7 km/h 22.5 km/h 77 % 0 mm 265 W/m2
10:37 11 °C 7.1 °C 1022.2 hPa North 9.7 km/h 19.3 km/h 77 % 0 mm 257 W/m2
10:42 10.9 °C 7 °C 1022.2 hPa North 11.3 km/h 22.5 km/h 77 % 0 mm 294 W/m2
10:47 11.1 °C 7.2 °C 1022.2 hPa NNW 11.3 km/h 22.5 km/h 77 % 0 mm 353 W/m2
10:52 11.2 °C 7.1 °C 1022.2 hPa North 8 km/h 20.9 km/h 76 % 0 mm 360 W/m2
10:57 11.4 °C 7.5 °C 1022.6 hPa North 8 km/h 20.9 km/h 77 % 0 mm 404 W/m2
11:02 11.6 °C 7.5 °C 1022.6 hPa North 9.7 km/h 19.3 km/h 76 % 0 mm 406 W/m2
11:07 11.6 °C 7.3 °C 1022.6 hPa NNE 11.3 km/h 19.3 km/h 75 % 0 mm 438 W/m2
11:12 11.4 °C 7.1 °C 1022.6 hPa NNE 11.3 km/h 19.3 km/h 75 % 0 mm 387 W/m2
11:17 11.4 °C 7.3 °C 1022.6 hPa NNE 9.7 km/h 20.9 km/h 76 % 0 mm 385 W/m2
11:22 11.4 °C 7.3 °C 1022.6 hPa NNE 9.7 km/h 20.9 km/h 76 % 0 mm 330 W/m2
11:27 11.3 °C 7.4 °C 1022.6 hPa NNE 11.3 km/h 17.7 km/h 77 % 0 mm 311 W/m2
11:32 11.4 °C 7.3 °C 1022.6 hPa NNE 11.3 km/h 20.9 km/h 76 % 0 mm 283 W/m2
11:37 11.4 °C 7.3 °C 1022.6 hPa NNE 11.3 km/h 20.9 km/h 76 % 0 mm 373 W/m2
11:42 11.7 °C 7.4 °C 1022.6 hPa NNE 11.3 km/h 20.9 km/h 75 % 0 mm 434 W/m2
11:47 11.9 °C 7.4 °C 1022.6 hPa North 9.7 km/h 19.3 km/h 74 % 0 mm 323 W/m2
11:52 12.4 °C 7.7 °C 1022.6 hPa North 8 km/h 19.3 km/h 73 % 0 mm 494 W/m2
11:57 12.6 °C 7.7 °C 1022.6 hPa NNE 11.3 km/h 22.5 km/h 72 % 0 mm 747 W/m2
12:02 12.7 °C 7.6 °C 1022.6 hPa NNE 11.3 km/h 24.1 km/h 71 % 0 mm 390 W/m2
12:07 12.9 °C 7.8 °C 1022.6 hPa NNE 11.3 km/h 25.7 km/h 71 % 0 mm 1090 W/m2
12:12 13.2 °C 7.6 °C 1022.6 hPa NNE 12.9 km/h 25.7 km/h 69 % 0 mm 568 W/m2
12:17 13.3 °C 7.7 °C 1022.6 hPa NNE 11.3 km/h 22.5 km/h 69 % 0 mm 497 W/m2
12:22 13.4 °C 7.8 °C 1022.6 hPa NNE 9.7 km/h 20.9 km/h 69 % 0 mm 513 W/m2
12:27 13.7 °C 7.9 °C 1022.6 hPa North 11.3 km/h 20.9 km/h 68 % 0 mm 411 W/m2
12:33 13.8 °C 7.8 °C 1022.6 hPa North 9.7 km/h 22.5 km/h 67 % 0 mm 510 W/m2
12:38 14 °C 8.2 °C 1022.6 hPa North 9.7 km/h 22.5 km/h 68 % 0 mm 380 W/m2
12:43 14.1 °C 8.1 °C 1022.6 hPa North 9.7 km/h 19.3 km/h 67 % 0 mm 1155 W/m2
12:48 14 °C 8.2 °C 1022.6 hPa NNE 12.9 km/h 22.5 km/h 68 % 0 mm 501 W/m2
12:53 13.9 °C 8.1 °C 1022.2 hPa North 12.9 km/h 24.1 km/h 68 % 0 mm 1044 W/m2
12:58 14.3 °C 8.4 °C 1022.6 hPa North 11.3 km/h 24.1 km/h 68 % 0 mm 1204 W/m2
13:03 14.3 °C 8.3 °C 1022.6 hPa North 12.9 km/h 30.6 km/h 67 % 0 mm 1209 W/m2
13:08 14.1 °C 8.3 °C 1022.6 hPa NNE 14.5 km/h 30.6 km/h 68 % 0 mm 603 W/m2
13:13 13.8 °C 8.2 °C 1022.6 hPa NNE 11.3 km/h 22.5 km/h 69 % 0 mm 413 W/m2
13:18 13.7 °C 8.1 °C 1022.6 hPa NNE 9.7 km/h 20.9 km/h 69 % 0 mm 374 W/m2
13:23 13.6 °C 8.2 °C 1022.6 hPa NNE 9.7 km/h 20.9 km/h 70 % 0 mm 621 W/m2
13:28 13.4 °C 8.1 °C 1022.6 hPa NNE 11.3 km/h 30.6 km/h 70 % 0 mm 378 W/m2
13:33 13.2 °C 8.1 °C 1022.9 hPa NNE 12.9 km/h 30.6 km/h 71 % 0 mm 392 W/m2
13:38 13.1 °C 8.4 °C 1022.9 hPa NNE 11.3 km/h 20.9 km/h 73 % 0 mm 469 W/m2
13:43 13.2 °C 8.3 °C 1022.9 hPa North 11.3 km/h 24.1 km/h 72 % 0 mm 443 W/m2
13:48 13.1 °C 7.9 °C 1022.9 hPa NNE 12.9 km/h 24.1 km/h 71 % 0 mm 330 W/m2
13:53 12.8 °C 8.1 °C 1022.9 hPa NNE 11.3 km/h 22.5 km/h 73 % 0 mm 290 W/m2
13:58 12.6 °C 7.9 °C 1022.9 hPa NNE 9.7 km/h 20.9 km/h 73 % 0 mm 334 W/m2
14:03 12.6 °C 8.3 °C 1022.9 hPa NNE 9.7 km/h 20.9 km/h 75 % 0 mm 315 W/m2
14:08 12.7 °C 8.2 °C 1022.9 hPa North 9.7 km/h 20.9 km/h 74 % 0 mm 318 W/m2
14:15 12.8 °C 8.1 °C 1022.9 hPa NNE 11.3 km/h 20.9 km/h 73 % 0 mm 367 W/m2
14:20 12.9 °C 8.4 °C 1022.9 hPa NE 9.7 km/h 25.7 km/h 74 % 0 mm 276 W/m2
14:25 12.8 °C 8.3 °C 1022.9 hPa NNE 8 km/h 25.7 km/h 74 % 0 mm 332 W/m2
14:30 12.8 °C 8.5 °C 1022.9 hPa NNE 11.3 km/h 20.9 km/h 75 % 0 mm 647 W/m2
14:35 13 °C 8.7 °C 1022.9 hPa NNE 11.3 km/h 22.5 km/h 75 % 0 mm 374 W/m2
14:40 13.3 °C 8.6 °C 1022.9 hPa NNE 11.3 km/h 22.5 km/h 73 % 0 mm 367 W/m2
14:45 13.4 °C 8.7 °C 1022.9 hPa NNE 11.3 km/h 20.9 km/h 73 % 0 mm 360 W/m2
14:50 13.3 °C 8.6 °C 1022.9 hPa NNE 11.3 km/h 22.5 km/h 73 % 0 mm 425 W/m2
14:55 13.1 °C 8.6 °C 1022.9 hPa NNE 12.9 km/h 25.7 km/h 74 % 0 mm 376 W/m2
15:00 12.8 °C 8.5 °C 1022.9 hPa NE 11.3 km/h 25.7 km/h 75 % 0 mm 279 W/m2
15:05 12.5 °C 8.4 °C 1022.9 hPa NNE 11.3 km/h 25.7 km/h 76 % 0 mm 352 W/m2
15:10 12.4 °C 8.5 °C 1022.9 hPa NE 11.3 km/h 25.7 km/h 77 % 0 mm 325 W/m2
15:15 12.3 °C 8.2 °C 1022.9 hPa NE 11.3 km/h 24.1 km/h 76 % 0 mm 320 W/m2
15:20 12.3 °C 8.4 °C 1022.9 hPa NE 9.7 km/h 20.9 km/h 77 % 0 mm 350 W/m2
15:25 12.3 °C 8.4 °C 1023.2 hPa NNE 9.7 km/h 20.9 km/h 77 % 0 mm 306 W/m2
15:30 12.4 °C 8.1 °C 1023.2 hPa NNE 9.7 km/h 25.7 km/h 75 % 0 mm 271 W/m2
15:36 12.2 °C 7.9 °C 1023.2 hPa NNE 11.3 km/h 25.7 km/h 75 % 0 mm 232 W/m2
15:41 12.1 °C 7.8 °C 1023.2 hPa NNE 11.3 km/h 25.7 km/h 75 % 0 mm 250 W/m2
15:46 12.1 °C 7.8 °C 1023.2 hPa NNE 12.9 km/h 20.9 km/h 75 % 0 mm 380 W/m2
15:51 12.3 °C 8 °C 1023.2 hPa NNE 11.3 km/h 24.1 km/h 75 % 0 mm 322 W/m2
15:56 12.3 °C 7.8 °C 1023.2 hPa NNE 9.7 km/h 24.1 km/h 74 % 0 mm 299 W/m2
16:01 12.3 °C 8 °C 1023.2 hPa NNE 11.3 km/h 24.1 km/h 75 % 0 mm 265 W/m2
16:06 12.3 °C 7.8 °C 1023.2 hPa NNE 11.3 km/h 22.5 km/h 74 % 0 mm 218 W/m2
16:11 12.1 °C 7.8 °C 1023.2 hPa NNE 12.9 km/h 22.5 km/h 75 % 0 mm 171 W/m2
16:16 11.8 °C 7.5 °C 1023.2 hPa NNE 14.5 km/h 32.2 km/h 75 % 0 mm 183 W/m2
16:21 11.6 °C 7.5 °C 1023.6 hPa NNE 16.1 km/h 32.2 km/h 76 % 0 mm 155 W/m2
16:26 11.4 °C 7.3 °C 1023.6 hPa NNE 14.5 km/h 25.7 km/h 76 % 0 mm 142 W/m2
16:31 11.3 °C 7.4 °C 1023.6 hPa NNE 12.9 km/h 24.1 km/h 77 % 0 mm 169 W/m2
16:32 11.3 °C 7.4 °C 1023.6 hPa NNE 11.3 km/h 22.5 km/h 77 % 0 mm 186 W/m2
16:37 11.4 °C 7.5 °C 1023.6 hPa NNE 11.3 km/h 33.8 km/h 77 % 0 mm 237 W/m2
16:42 11.4 °C 7.3 °C 1023.6 hPa NNE 14.5 km/h 33.8 km/h 76 % 0 mm 156 W/m2
16:47 11.4 °C 7.3 °C 1023.6 hPa NNE 12.9 km/h 30.6 km/h 76 % 0 mm 107 W/m2
16:52 11.3 °C 7.2 °C 1023.6 hPa NNE 11.3 km/h 24.1 km/h 76 % 0 mm 137 W/m2
16:57 11.2 °C 7.1 °C 1023.6 hPa NNE 11.3 km/h 24.1 km/h 76 % 0 mm 105 W/m2
17:02 11.1 °C 7.2 °C 1023.6 hPa NNE 11.3 km/h 22.5 km/h 77 % 0 mm 120 W/m2
17:07 11.1 °C 7.2 °C 1023.6 hPa NNE 9.7 km/h 19.3 km/h 77 % 0 mm 142 W/m2
17:12 11.1 °C 7.2 °C 1023.6 hPa NNE 11.3 km/h 19.3 km/h 77 % 0 mm 146 W/m2
17:17 11.1 °C 7 °C 1023.6 hPa NNE 11.3 km/h 22.5 km/h 76 % 0 mm 153 W/m2
17:22 11 °C 6.9 °C 1023.6 hPa NNE 12.9 km/h 22.5 km/h 76 % 0 mm 171 W/m2
17:27 10.9 °C 7 °C 1023.6 hPa NNE 12.9 km/h 20.9 km/h 77 % 0 mm 132 W/m2
17:32 11 °C 6.9 °C 1023.6 hPa NNE 9.7 km/h 20.9 km/h 76 % 0 mm 121 W/m2
17:37 11 °C 6.9 °C 1023.6 hPa NNE 9.7 km/h 22.5 km/h 76 % 0 mm 172 W/m2
17:42 11 °C 6.9 °C 1023.6 hPa NNE 11.3 km/h 22.5 km/h 76 % 0 mm 142 W/m2
17:47 11 °C 6.9 °C 1023.6 hPa North 11.3 km/h 22.5 km/h 76 % 0 mm 149 W/m2
17:52 11 °C 6.7 °C 1023.9 hPa North 11.3 km/h 22.5 km/h 75 % 0 mm 113 W/m2
17:57 10.9 °C 6.7 °C 1023.9 hPa NNE 11.3 km/h 20.9 km/h 75 % 0 mm 97 W/m2
18:02 10.8 °C 6.7 °C 1023.9 hPa NNE 9.7 km/h 17.7 km/h 76 % 0 mm 90 W/m2
18:07 10.7 °C 6.7 °C 1023.9 hPa NNE 9.7 km/h 19.3 km/h 76 % 0 mm 120 W/m2
18:12 10.7 °C 6.7 °C 1023.9 hPa NNE 11.3 km/h 19.3 km/h 76 % 0 mm 113 W/m2
18:17 10.7 °C 6.7 °C 1023.9 hPa North 9.7 km/h 19.3 km/h 76 % 0 mm 120 W/m2
18:22 10.7 °C 6.3 °C 1023.9 hPa NNE 12.9 km/h 24.1 km/h 74 % 0 mm 97 W/m2
18:27 10.6 °C 6.2 °C 1023.9 hPa NNE 14.5 km/h 25.7 km/h 74 % 0 mm 107 W/m2
18:32 10.6 °C 6.2 °C 1023.9 hPa NNE 12.9 km/h 25.7 km/h 74 % 0 mm 98 W/m2
18:38 10.6 °C 6.2 °C 1023.9 hPa NNE 12.9 km/h 22.5 km/h 74 % 0 mm 81 W/m2
18:43 10.6 °C 6.2 °C 1023.9 hPa NNE 11.3 km/h 22.5 km/h 74 % 0 mm 65 W/m2
18:48 10.5 °C 6.1 °C 1023.9 hPa NE 9.7 km/h 17.7 km/h 74 % 0 mm 51 W/m2
18:49 10.4 °C 5.9 °C 1023.9 hPa NE 8 km/h 17.7 km/h 74 % 0 mm 49 W/m2
18:54 10.4 °C 5.9 °C 1023.9 hPa NNE 9.7 km/h 19.3 km/h 74 % 0 mm 47 W/m2
18:59 10.3 °C 5.7 °C 1023.9 hPa NNE 11.3 km/h 20.9 km/h 73 % 0 mm 62 W/m2
19:04 10.3 °C 5.9 °C 1024.3 hPa North 11.3 km/h 24.1 km/h 74 % 0 mm 62 W/m2
19:09 10.3 °C 5.7 °C 1024.3 hPa North 12.9 km/h 24.1 km/h 73 % 0 mm 60 W/m2
19:14 10.3 °C 5.7 °C 1023.9 hPa North 11.3 km/h 22.5 km/h 73 % 0 mm 69 W/m2
19:19 10.2 °C 5.6 °C 1024.3 hPa North 11.3 km/h 22.5 km/h 73 % 0 mm 63 W/m2
19:25 10.2 °C 5.6 °C 1023.9 hPa NNE 11.3 km/h 24.1 km/h 73 % 0 mm 58 W/m2
19:30 10.2 °C 5.6 °C 1024.3 hPa NNE 11.3 km/h 24.1 km/h 73 % 0 mm 72 W/m2
19:35 10.2 °C 5.6 °C 1024.3 hPa NNE 9.7 km/h 24.1 km/h 73 % 0 mm 42 W/m2
19:40 10.1 °C 5.5 °C 1024.3 hPa NNE 9.7 km/h 19.3 km/h 73 % 0 mm 32 W/m2
19:45 9.9 °C 5.3 °C 1024.3 hPa NNE 11.3 km/h 24.1 km/h 73 % 0 mm 26 W/m2
19:50 9.9 °C 5.3 °C 1024.3 hPa North 9.7 km/h 24.1 km/h 73 % 0 mm 26 W/m2
19:55 9.8 °C 5.4 °C 1024.3 hPa NNE 8 km/h 16.1 km/h 74 % 0 mm 30 W/m2
20:00 9.7 °C 5.3 °C 1024.3 hPa NNE 6.4 km/h 16.1 km/h 74 % 0 mm 28 W/m2
20:05 9.7 °C 5.5 °C 1024.3 hPa NNE 6.4 km/h 16.1 km/h 75 % 0 mm 25 W/m2
20:10 9.6 °C 5.4 °C 1024.3 hPa NNE 6.4 km/h 17.7 km/h 75 % 0 mm 26 W/m2
20:15 9.6 °C 5.4 °C 1024.3 hPa NNE 8 km/h 19.3 km/h 75 % 0 mm 35 W/m2
20:20 9.6 °C 5.6 °C 1024.3 hPa NNE 8 km/h 19.3 km/h 76 % 0 mm 21 W/m2
20:25 9.4 °C 5.4 °C 1024.3 hPa NNE 9.7 km/h 20.9 km/h 76 % 0 mm 12 W/m2
20:30 9.3 °C 5.3 °C 1024.3 hPa NNE 11.3 km/h 20.9 km/h 76 % 0 mm 9 W/m2
20:31 9.3 °C 5.3 °C 1024.3 hPa NNE 11.3 km/h 20.9 km/h 76 % 0 mm 9 W/m2
20:36 9.1 °C 5.1 °C 1024.6 hPa NNE 9.7 km/h 20.9 km/h 76 % 0 mm 7 W/m2
20:41 9 °C 5.2 °C 1024.6 hPa NNE 8 km/h 17.7 km/h 77 % 0 mm 7 W/m2
20:46 8.9 °C 5.1 °C 1024.6 hPa North 6.4 km/h 17.7 km/h 77 % 0 mm 5 W/m2
20:51 8.8 °C 5 °C 1024.9 hPa North 8 km/h 20.9 km/h 77 % 0 mm 0 W/m2
20:56 8.8 °C 5 °C 1024.9 hPa NNE 9.7 km/h 20.9 km/h 77 % 0 mm 0 W/m2
21:01 8.7 °C 4.9 °C 1024.9 hPa NNE 8 km/h 17.7 km/h 77 % 0 mm 0 W/m2
21:06 8.6 °C 4.8 °C 1024.9 hPa NNE 8 km/h 17.7 km/h 77 % 0 mm 0 W/m2
21:11 8.6 °C 4.8 °C 1024.9 hPa NNE 6.4 km/h 19.3 km/h 77 % 0 mm 0 W/m2
21:16 8.4 °C 4.8 °C 1025.3 hPa NNE 9.7 km/h 20.9 km/h 78 % 0 mm 0 W/m2
21:21 8.4 °C 4.8 °C 1025.3 hPa NNE 9.7 km/h 20.9 km/h 78 % 0 mm 0 W/m2
21:27 8.3 °C 4.7 °C 1025.3 hPa NNE 8 km/h 19.3 km/h 78 % 0 mm 0 W/m2
21:32 8.3 °C 4.7 °C 1025.3 hPa NNE 8 km/h 20.9 km/h 78 % 0 mm 0 W/m2
21:37 8.3 °C 4.5 °C 1025.6 hPa North 8 km/h 20.9 km/h 77 % 0 mm 0 W/m2
21:42 8.2 °C 4.4 °C 1025.6 hPa North 9.7 km/h 20.9 km/h 77 % 0 mm 0 W/m2
21:47 8.2 °C 4.4 °C 1025.6 hPa NNE 9.7 km/h 19.3 km/h 77 % 0 mm 0 W/m2
21:52 8.1 °C 4.3 °C 1025.6 hPa NNE 9.7 km/h 22.5 km/h 77 % 0 mm 0 W/m2
21:57 8 °C 4.2 °C 1025.6 hPa NNE 11.3 km/h 22.5 km/h 77 % 0 mm 0 W/m2
22:02 7.9 °C 4.1 °C 1025.6 hPa North 11.3 km/h 24.1 km/h 77 % 0 mm 0 W/m2
22:07 7.8 °C 4 °C 1025.6 hPa North 11.3 km/h 24.1 km/h 77 % 0 mm 0 W/m2
22:12 7.8 °C 4 °C 1025.6 hPa North 11.3 km/h 22.5 km/h 77 % 0 mm 0 W/m2
22:17 7.7 °C 3.9 °C 1025.6 hPa North 9.7 km/h 22.5 km/h 77 % 0 mm 0 W/m2
22:22 7.6 °C 3.8 °C 1025.6 hPa North 9.7 km/h 24.1 km/h 77 % 0 mm 0 W/m2
22:27 7.5 °C 3.9 °C 1025.6 hPa North 9.7 km/h 24.1 km/h 78 % 0 mm 0 W/m2
22:32 7.4 °C 3.8 °C 1025.6 hPa North 9.7 km/h 22.5 km/h 78 % 0 mm 0 W/m2
22:37 7.4 °C 3.8 °C 1026 hPa North 11.3 km/h 24.1 km/h 78 % 0 mm 0 W/m2
22:42 7.4 °C 3.8 °C 1026 hPa North 11.3 km/h 24.1 km/h 78 % 0 mm 0 W/m2
22:47 7.3 °C 3.7 °C 1026 hPa North 9.7 km/h 20.9 km/h 78 % 0 mm 0 W/m2
22:52 7.4 °C 3.8 °C 1026 hPa North 12.9 km/h 25.7 km/h 78 % 0 mm 0 W/m2
22:57 7.4 °C 3.8 °C 1026 hPa North 12.9 km/h 25.7 km/h 78 % 0 mm 0 W/m2
23:02 7.4 °C 3.8 °C 1026 hPa NNW 12.9 km/h 24.1 km/h 78 % 0 mm 0 W/m2
23:07 7.4 °C 3.8 °C 1026 hPa North 12.9 km/h 24.1 km/h 78 % 0 mm 0 W/m2
23:12 7.4 °C 3.8 °C 1026 hPa North 11.3 km/h 20.9 km/h 78 % 0 mm 0 W/m2
23:17 7.4 °C 3.8 °C 1026 hPa North 11.3 km/h 20.9 km/h 78 % 0 mm 0 W/m2
23:22 7.4 °C 3.8 °C 1026 hPa North 11.3 km/h 20.9 km/h 78 % 0 mm 0 W/m2
23:27 7.4 °C 3.8 °C 1026 hPa North 9.7 km/h 20.9 km/h 78 % 0 mm 0 W/m2
23:32 7.4 °C 3.8 °C 1026 hPa North 9.7 km/h 19.3 km/h 78 % 0 mm 0 W/m2
23:37 7.4 °C 3.8 °C 1026 hPa North 8 km/h 17.7 km/h 78 % 0 mm 0 W/m2
23:42 7.4 °C 3.8 °C 1026.3 hPa North 8 km/h 17.7 km/h 78 % 0 mm 0 W/m2
23:47 7.4 °C 3.8 °C 1026.3 hPa North 11.3 km/h 20.9 km/h 78 % 0 mm 0 W/m2
23:52 7.4 °C 3.8 °C 1026.3 hPa North 11.3 km/h 20.9 km/h 78 % 0 mm 0 W/m2
23:57 7.4 °C 3.8 °C 1026.3 hPa North 9.7 km/h 17.7 km/h 78 % 0 mm 0 W/m2
Delerius-Weather
Compliments of Weather Underground - 2.25 mb

Data updates at regular intervals.